sensor_id;sensor_type;location;lat;lon;timestamp;P1;durP1;ratioP1;P2;durP2;ratioP2
72117;SDS011;59992;47.490;8.736;2024-02-16T00:01:05;4.80;;;2.80;;
72117;SDS011;59992;47.490;8.736;2024-02-16T00:03:53;6.10;;;2.80;;
72117;SDS011;59992;47.490;8.736;2024-02-16T00:06:42;5.30;;;2.60;;
72117;SDS011;59992;47.490;8.736;2024-02-16T00:09:30;4.70;;;2.40;;
72117;SDS011;59992;47.490;8.736;2024-02-16T00:12:20;4.60;;;2.60;;
72117;SDS011;59992;47.490;8.736;2024-02-16T00:15:08;4.30;;;2.30;;
72117;SDS011;59992;47.490;8.736;2024-02-16T00:17:57;5.80;;;3.00;;
72117;SDS011;59992;47.490;8.736;2024-02-16T00:20:45;8.50;;;3.10;;
72117;SDS011;59992;47.490;8.736;2024-02-16T00:23:34;4.90;;;2.50;;
72117;SDS011;59992;47.490;8.736;2024-02-16T00:26:22;4.90;;;3.00;;
72117;SDS011;59992;47.490;8.736;2024-02-16T00:29:10;5.10;;;2.90;;
72117;SDS011;59992;47.490;8.736;2024-02-16T00:31:59;5.00;;;2.70;;
72117;SDS011;59992;47.490;8.736;2024-02-16T00:34:47;4.00;;;2.30;;
72117;SDS011;59992;47.490;8.736;2024-02-16T00:37:35;6.20;;;2.80;;
72117;SDS011;59992;47.490;8.736;2024-02-16T00:40:25;6.40;;;3.10;;
72117;SDS011;59992;47.490;8.736;2024-02-16T00:43:14;4.60;;;2.90;;
72117;SDS011;59992;47.490;8.736;2024-02-16T00:46:04;4.50;;;2.60;;
72117;SDS011;59992;47.490;8.736;2024-02-16T00:48:52;5.20;;;2.70;;
72117;SDS011;59992;47.490;8.736;2024-02-16T00:51:41;3.80;;;2.10;;
72117;SDS011;59992;47.490;8.736;2024-02-16T00:54:29;7.60;;;2.80;;
72117;SDS011;59992;47.490;8.736;2024-02-16T00:57:17;8.20;;;3.40;;
72117;SDS011;59992;47.490;8.736;2024-02-16T01:00:06;4.90;;;2.70;;
72117;SDS011;59992;47.490;8.736;2024-02-16T01:02:56;4.20;;;2.40;;
72117;SDS011;59992;47.490;8.736;2024-02-16T01:05:44;6.30;;;2.90;;
72117;SDS011;59992;47.490;8.736;2024-02-16T01:08:32;5.30;;;3.50;;
72117;SDS011;59992;47.490;8.736;2024-02-16T01:11:20;8.60;;;3.20;;
72117;SDS011;59992;47.490;8.736;2024-02-16T01:14:11;4.50;;;3.00;;
72117;SDS011;59992;47.490;8.736;2024-02-16T01:16:59;5.60;;;3.40;;
72117;SDS011;59992;47.490;8.736;2024-02-16T01:19:48;9.10;;;3.40;;
72117;SDS011;59992;47.490;8.736;2024-02-16T01:22:36;4.20;;;2.80;;
72117;SDS011;59992;47.490;8.736;2024-02-16T01:25:24;3.90;;;2.50;;
72117;SDS011;59992;47.490;8.736;2024-02-16T01:28:12;5.10;;;3.00;;
72117;SDS011;59992;47.490;8.736;2024-02-16T01:31:01;5.00;;;3.10;;
72117;SDS011;59992;47.490;8.736;2024-02-16T01:33:49;6.00;;;3.30;;
72117;SDS011;59992;47.490;8.736;2024-02-16T01:36:37;9.80;;;3.70;;
72117;SDS011;59992;47.490;8.736;2024-02-16T01:39:25;7.30;;;4.20;;
72117;SDS011;59992;47.490;8.736;2024-02-16T01:42:13;7.80;;;4.00;;
72117;SDS011;59992;47.490;8.736;2024-02-16T01:45:01;10.50;;;4.10;;
72117;SDS011;59992;47.490;8.736;2024-02-16T01:47:50;6.80;;;4.10;;
72117;SDS011;59992;47.490;8.736;2024-02-16T01:50:38;8.70;;;4.30;;
72117;SDS011;59992;47.490;8.736;2024-02-16T01:53:27;6.90;;;4.40;;
72117;SDS011;59992;47.490;8.736;2024-02-16T01:56:16;7.30;;;4.70;;
72117;SDS011;59992;47.490;8.736;2024-02-16T01:59:07;7.20;;;4.30;;
72117;SDS011;59992;47.490;8.736;2024-02-16T02:01:56;8.60;;;4.60;;
72117;SDS011;59992;47.490;8.736;2024-02-16T02:04:44;8.30;;;4.30;;
72117;SDS011;59992;47.490;8.736;2024-02-16T02:07:33;7.30;;;4.20;;
72117;SDS011;59992;47.490;8.736;2024-02-16T02:10:21;7.80;;;4.40;;
72117;SDS011;59992;47.490;8.736;2024-02-16T02:13:10;8.20;;;4.00;;
72117;SDS011;59992;47.490;8.736;2024-02-16T02:15:58;6.60;;;3.70;;
72117;SDS011;59992;47.490;8.736;2024-02-16T02:18:47;6.40;;;4.00;;
72117;SDS011;59992;47.490;8.736;2024-02-16T02:21:35;7.30;;;3.70;;
72117;SDS011;59992;47.490;8.736;2024-02-16T02:24:23;5.80;;;3.30;;
72117;SDS011;59992;47.490;8.736;2024-02-16T02:27:12;7.90;;;4.50;;
72117;SDS011;59992;47.490;8.736;2024-02-16T02:30:00;7.20;;;4.40;;
72117;SDS011;59992;47.490;8.736;2024-02-16T02:32:50;8.90;;;4.60;;
72117;SDS011;59992;47.490;8.736;2024-02-16T02:35:38;6.20;;;4.00;;
72117;SDS011;59992;47.490;8.736;2024-02-16T02:38:26;7.50;;;4.20;;
72117;SDS011;59992;47.490;8.736;2024-02-16T02:41:15;5.90;;;3.80;;
72117;SDS011;59992;47.490;8.736;2024-02-16T02:44:05;6.00;;;3.50;;
72117;SDS011;59992;47.490;8.736;2024-02-16T02:46:53;8.20;;;3.80;;
72117;SDS011;59992;47.490;8.736;2024-02-16T02:49:42;8.30;;;3.90;;
72117;SDS011;59992;47.490;8.736;2024-02-16T02:52:30;7.20;;;3.90;;
72117;SDS011;59992;47.490;8.736;2024-02-16T02:55:18;8.30;;;4.20;;
72117;SDS011;59992;47.490;8.736;2024-02-16T02:58:07;6.40;;;3.70;;
72117;SDS011;59992;47.490;8.736;2024-02-16T03:00:55;6.60;;;3.70;;
72117;SDS011;59992;47.490;8.736;2024-02-16T03:03:44;10.70;;;4.30;;
72117;SDS011;59992;47.490;8.736;2024-02-16T03:06:34;7.60;;;4.20;;
72117;SDS011;59992;47.490;8.736;2024-02-16T03:09:22;8.80;;;4.00;;
72117;SDS011;59992;47.490;8.736;2024-02-16T03:12:09;6.70;;;3.10;;
72117;SDS011;59992;47.490;8.736;2024-02-16T03:15:00;7.40;;;3.80;;
72117;SDS011;59992;47.490;8.736;2024-02-16T03:17:48;6.40;;;3.60;;
72117;SDS011;59992;47.490;8.736;2024-02-16T03:20:35;6.00;;;3.20;;
72117;SDS011;59992;47.490;8.736;2024-02-16T03:23:24;7.10;;;3.30;;
72117;SDS011;59992;47.490;8.736;2024-02-16T03:26:15;5.90;;;3.30;;
72117;SDS011;59992;47.490;8.736;2024-02-16T03:29:04;8.90;;;3.70;;
72117;SDS011;59992;47.490;8.736;2024-02-16T03:31:52;6.10;;;3.60;;
72117;SDS011;59992;47.490;8.736;2024-02-16T03:34:40;8.00;;;3.20;;
72117;SDS011;59992;47.490;8.736;2024-02-16T03:37:28;6.10;;;3.00;;
72117;SDS011;59992;47.490;8.736;2024-02-16T03:40:17;7.20;;;3.50;;
72117;SDS011;59992;47.490;8.736;2024-02-16T03:43:06;7.30;;;3.10;;
72117;SDS011;59992;47.490;8.736;2024-02-16T03:45:54;5.70;;;3.20;;
72117;SDS011;59992;47.490;8.736;2024-02-16T03:48:43;5.30;;;3.40;;
72117;SDS011;59992;47.490;8.736;2024-02-16T03:51:31;4.70;;;3.10;;
72117;SDS011;59992;47.490;8.736;2024-02-16T03:54:20;5.40;;;2.90;;
72117;SDS011;59992;47.490;8.736;2024-02-16T03:57:08;7.30;;;3.10;;
72117;SDS011;59992;47.490;8.736;2024-02-16T03:59:58;6.50;;;2.80;;
72117;SDS011;59992;47.490;8.736;2024-02-16T04:02:49;7.30;;;3.50;;
72117;SDS011;59992;47.490;8.736;2024-02-16T04:05:38;6.00;;;3.80;;
72117;SDS011;59992;47.490;8.736;2024-02-16T04:08:27;7.70;;;3.90;;
72117;SDS011;59992;47.490;8.736;2024-02-16T04:11:15;6.50;;;3.60;;
72117;SDS011;59992;47.490;8.736;2024-02-16T04:14:04;7.20;;;3.70;;
72117;SDS011;59992;47.490;8.736;2024-02-16T04:16:52;10.40;;;4.40;;
72117;SDS011;59992;47.490;8.736;2024-02-16T04:19:40;8.40;;;4.00;;
72117;SDS011;59992;47.490;8.736;2024-02-16T04:22:28;6.40;;;3.70;;
72117;SDS011;59992;47.490;8.736;2024-02-16T04:25:17;6.50;;;3.80;;
72117;SDS011;59992;47.490;8.736;2024-02-16T04:28:05;6.00;;;3.50;;
72117;SDS011;59992;47.490;8.736;2024-02-16T04:30:54;8.80;;;3.90;;
72117;SDS011;59992;47.490;8.736;2024-02-16T04:33:42;5.60;;;3.60;;
72117;SDS011;59992;47.490;8.736;2024-02-16T04:36:31;6.00;;;3.70;;
72117;SDS011;59992;47.490;8.736;2024-02-16T04:39:19;7.30;;;4.40;;
72117;SDS011;59992;47.490;8.736;2024-02-16T04:42:07;7.70;;;3.50;;
72117;SDS011;59992;47.490;8.736;2024-02-16T04:44:54;8.90;;;4.20;;
72117;SDS011;59992;47.490;8.736;2024-02-16T04:47:43;9.90;;;3.70;;
72117;SDS011;59992;47.490;8.736;2024-02-16T04:50:31;7.80;;;3.80;;
72117;SDS011;59992;47.490;8.736;2024-02-16T04:53:23;7.80;;;3.10;;
72117;SDS011;59992;47.490;8.736;2024-02-16T04:56:14;4.80;;;3.00;;
72117;SDS011;59992;47.490;8.736;2024-02-16T04:59:02;5.30;;;3.00;;
72117;SDS011;59992;47.490;8.736;2024-02-16T05:01:51;10.20;;;3.00;;
72117;SDS011;59992;47.490;8.736;2024-02-16T05:04:39;5.50;;;2.90;;
72117;SDS011;59992;47.490;8.736;2024-02-16T05:07:27;4.50;;;2.70;;
72117;SDS011;59992;47.490;8.736;2024-02-16T05:10:18;7.40;;;3.00;;
72117;SDS011;59992;47.490;8.736;2024-02-16T05:13:06;7.80;;;3.40;;
72117;SDS011;59992;47.490;8.736;2024-02-16T05:15:54;6.30;;;3.30;;
72117;SDS011;59992;47.490;8.736;2024-02-16T05:18:42;5.00;;;2.90;;
72117;SDS011;59992;47.490;8.736;2024-02-16T05:21:30;4.90;;;2.60;;
72117;SDS011;59992;47.490;8.736;2024-02-16T05:24:18;4.90;;;2.60;;
72117;SDS011;59992;47.490;8.736;2024-02-16T05:27:07;6.00;;;2.70;;
72117;SDS011;59992;47.490;8.736;2024-02-16T05:29:57;5.20;;;2.70;;
72117;SDS011;59992;47.490;8.736;2024-02-16T05:32:46;6.20;;;2.90;;
72117;SDS011;59992;47.490;8.736;2024-02-16T05:35:38;5.30;;;2.90;;
72117;SDS011;59992;47.490;8.736;2024-02-16T05:38:27;5.40;;;3.20;;
72117;SDS011;59992;47.490;8.736;2024-02-16T05:41:27;5.80;;;3.30;;
72117;SDS011;59992;47.490;8.736;2024-02-16T05:44:16;7.10;;;3.10;;
72117;SDS011;59992;47.490;8.736;2024-02-16T05:47:04;4.40;;;2.40;;
72117;SDS011;59992;47.490;8.736;2024-02-16T05:49:54;5.30;;;2.60;;
72117;SDS011;59992;47.490;8.736;2024-02-16T05:52:43;5.00;;;2.40;;
72117;SDS011;59992;47.490;8.736;2024-02-16T05:55:31;6.80;;;2.90;;
72117;SDS011;59992;47.490;8.736;2024-02-16T05:58:19;5.10;;;2.90;;
72117;SDS011;59992;47.490;8.736;2024-02-16T06:01:07;5.70;;;3.00;;
72117;SDS011;59992;47.490;8.736;2024-02-16T06:03:59;5.10;;;3.00;;
72117;SDS011;59992;47.490;8.736;2024-02-16T06:06:47;4.50;;;2.80;;
72117;SDS011;59992;47.490;8.736;2024-02-16T06:09:35;5.60;;;2.60;;
72117;SDS011;59992;47.490;8.736;2024-02-16T06:12:24;4.80;;;2.20;;
72117;SDS011;59992;47.490;8.736;2024-02-16T06:15:12;5.00;;;2.70;;
72117;SDS011;59992;47.490;8.736;2024-02-16T06:18:01;5.10;;;2.70;;
72117;SDS011;59992;47.490;8.736;2024-02-16T06:20:50;5.70;;;3.40;;
72117;SDS011;59992;47.490;8.736;2024-02-16T06:23:38;5.90;;;3.00;;
72117;SDS011;59992;47.490;8.736;2024-02-16T06:26:26;5.20;;;3.20;;
72117;SDS011;59992;47.490;8.736;2024-02-16T06:29:15;3.60;;;2.20;;
72117;SDS011;59992;47.490;8.736;2024-02-16T06:32:03;6.20;;;2.80;;
72117;SDS011;59992;47.490;8.736;2024-02-16T06:34:52;5.60;;;2.90;;
72117;SDS011;59992;47.490;8.736;2024-02-16T06:37:41;5.20;;;2.60;;
72117;SDS011;59992;47.490;8.736;2024-02-16T06:40:29;6.30;;;2.70;;
72117;SDS011;59992;47.490;8.736;2024-02-16T06:43:17;4.40;;;2.80;;
72117;SDS011;59992;47.490;8.736;2024-02-16T06:46:05;5.30;;;3.00;;
72117;SDS011;59992;47.490;8.736;2024-02-16T06:48:53;4.40;;;2.50;;
72117;SDS011;59992;47.490;8.736;2024-02-16T06:51:43;5.60;;;3.20;;
72117;SDS011;59992;47.490;8.736;2024-02-16T06:54:31;4.90;;;2.60;;
72117;SDS011;59992;47.490;8.736;2024-02-16T06:57:19;4.70;;;2.50;;
72117;SDS011;59992;47.490;8.736;2024-02-16T07:00:09;7.00;;;3.00;;
72117;SDS011;59992;47.490;8.736;2024-02-16T07:02:59;4.70;;;2.70;;
72117;SDS011;59992;47.490;8.736;2024-02-16T07:05:48;5.30;;;3.10;;
72117;SDS011;59992;47.490;8.736;2024-02-16T07:08:36;5.30;;;2.80;;
72117;SDS011;59992;47.490;8.736;2024-02-16T07:11:24;7.90;;;3.00;;
72117;SDS011;59992;47.490;8.736;2024-02-16T07:14:13;6.50;;;3.50;;
72117;SDS011;59992;47.490;8.736;2024-02-16T07:17:01;6.20;;;3.50;;
72117;SDS011;59992;47.490;8.736;2024-02-16T07:19:49;5.80;;;3.50;;
72117;SDS011;59992;47.490;8.736;2024-02-16T07:22:38;9.50;;;3.80;;
72117;SDS011;59992;47.490;8.736;2024-02-16T07:25:27;8.10;;;3.40;;
72117;SDS011;59992;47.490;8.736;2024-02-16T07:28:15;7.60;;;3.50;;
72117;SDS011;59992;47.490;8.736;2024-02-16T07:31:03;5.10;;;3.30;;
72117;SDS011;59992;47.490;8.736;2024-02-16T07:33:52;6.70;;;2.90;;
72117;SDS011;59992;47.490;8.736;2024-02-16T07:36:40;6.20;;;2.70;;
72117;SDS011;59992;47.490;8.736;2024-02-16T07:39:28;4.90;;;2.80;;
72117;SDS011;59992;47.490;8.736;2024-02-16T07:42:17;4.40;;;2.40;;
72117;SDS011;59992;47.490;8.736;2024-02-16T07:45:06;5.30;;;2.70;;
72117;SDS011;59992;47.490;8.736;2024-02-16T07:47:55;5.30;;;3.10;;
72117;SDS011;59992;47.490;8.736;2024-02-16T07:50:44;5.30;;;2.80;;
72117;SDS011;59992;47.490;8.736;2024-02-16T07:53:32;6.30;;;3.10;;
72117;SDS011;59992;47.490;8.736;2024-02-16T07:56:20;8.10;;;3.40;;
72117;SDS011;59992;47.490;8.736;2024-02-16T07:59:09;7.90;;;3.50;;
72117;SDS011;59992;47.490;8.736;2024-02-16T08:01:57;8.30;;;4.10;;
72117;SDS011;59992;47.490;8.736;2024-02-16T08:04:47;7.00;;;4.30;;
72117;SDS011;59992;47.490;8.736;2024-02-16T08:07:35;6.10;;;3.50;;
72117;SDS011;59992;47.490;8.736;2024-02-16T08:10:23;6.80;;;3.90;;
72117;SDS011;59992;47.490;8.736;2024-02-16T08:13:12;5.80;;;3.50;;
72117;SDS011;59992;47.490;8.736;2024-02-16T08:16:00;8.20;;;4.10;;
72117;SDS011;59992;47.490;8.736;2024-02-16T08:18:53;7.30;;;4.30;;
72117;SDS011;59992;47.490;8.736;2024-02-16T08:21:42;7.60;;;3.90;;
72117;SDS011;59992;47.490;8.736;2024-02-16T08:24:32;7.40;;;3.90;;
72117;SDS011;59992;47.490;8.736;2024-02-16T08:27:20;7.20;;;4.40;;
72117;SDS011;59992;47.490;8.736;2024-02-16T08:30:09;6.30;;;3.80;;
72117;SDS011;59992;47.490;8.736;2024-02-16T08:32:59;7.20;;;3.60;;
72117;SDS011;59992;47.490;8.736;2024-02-16T08:35:48;7.00;;;4.00;;
72117;SDS011;59992;47.490;8.736;2024-02-16T08:38:37;7.90;;;4.10;;
72117;SDS011;59992;47.490;8.736;2024-02-16T08:41:27;8.00;;;4.60;;
72117;SDS011;59992;47.490;8.736;2024-02-16T08:44:19;10.90;;;5.60;;
72117;SDS011;59992;47.490;8.736;2024-02-16T08:47:08;10.30;;;5.10;;
72117;SDS011;59992;47.490;8.736;2024-02-16T08:49:58;10.90;;;5.20;;
72117;SDS011;59992;47.490;8.736;2024-02-16T08:52:46;9.40;;;4.80;;
72117;SDS011;59992;47.490;8.736;2024-02-16T08:55:34;11.90;;;5.60;;
72117;SDS011;59992;47.490;8.736;2024-02-16T08:58:22;11.70;;;5.20;;
72117;SDS011;59992;47.490;8.736;2024-02-16T09:01:10;9.40;;;5.20;;
72117;SDS011;59992;47.490;8.736;2024-02-16T09:03:59;10.10;;;5.10;;
72117;SDS011;59992;47.490;8.736;2024-02-16T09:06:47;9.70;;;5.20;;
72117;SDS011;59992;47.490;8.736;2024-02-16T09:09:38;11.00;;;5.50;;
72117;SDS011;59992;47.490;8.736;2024-02-16T09:12:27;11.70;;;5.10;;
72117;SDS011;59992;47.490;8.736;2024-02-16T09:15:15;11.90;;;5.30;;
72117;SDS011;59992;47.490;8.736;2024-02-16T09:18:04;8.20;;;4.70;;
72117;SDS011;59992;47.490;8.736;2024-02-16T09:20:53;10.20;;;4.90;;
72117;SDS011;59992;47.490;8.736;2024-02-16T09:23:42;9.00;;;4.90;;
72117;SDS011;59992;47.490;8.736;2024-02-16T09:26:30;9.20;;;5.10;;
72117;SDS011;59992;47.490;8.736;2024-02-16T09:29:20;13.80;;;5.30;;
72117;SDS011;59992;47.490;8.736;2024-02-16T09:32:08;9.70;;;4.80;;
72117;SDS011;59992;47.490;8.736;2024-02-16T09:34:56;9.90;;;4.80;;
72117;SDS011;59992;47.490;8.736;2024-02-16T09:37:45;6.50;;;4.20;;
72117;SDS011;59992;47.490;8.736;2024-02-16T09:40:33;8.90;;;3.80;;
72117;SDS011;59992;47.490;8.736;2024-02-16T09:43:25;8.00;;;3.70;;
72117;SDS011;59992;47.490;8.736;2024-02-16T09:46:15;9.20;;;4.00;;
72117;SDS011;59992;47.490;8.736;2024-02-16T09:49:03;6.80;;;3.70;;
72117;SDS011;59992;47.490;8.736;2024-02-16T09:51:55;8.00;;;3.80;;
72117;SDS011;59992;47.490;8.736;2024-02-16T09:54:49;5.00;;;2.30;;
72117;SDS011;59992;47.490;8.736;2024-02-16T09:57:38;7.00;;;2.20;;
72117;SDS011;59992;47.490;8.736;2024-02-16T10:00:26;3.60;;;1.80;;
72117;SDS011;59992;47.490;8.736;2024-02-16T10:03:27;4.30;;;1.50;;
72117;SDS011;59992;47.490;8.736;2024-02-16T10:06:15;6.40;;;2.10;;
72117;SDS011;59992;47.490;8.736;2024-02-16T10:09:04;3.20;;;1.50;;
72117;SDS011;59992;47.490;8.736;2024-02-16T10:11:53;7.50;;;2.10;;
72117;SDS011;59992;47.490;8.736;2024-02-16T10:14:41;4.10;;;1.80;;
72117;SDS011;59992;47.490;8.736;2024-02-16T10:17:40;2.70;;;1.50;;
72117;SDS011;59992;47.490;8.736;2024-02-16T10:20:28;5.30;;;1.70;;
72117;SDS011;59992;47.490;8.736;2024-02-16T10:23:17;3.60;;;1.80;;
72117;SDS011;59992;47.490;8.736;2024-02-16T10:26:05;2.70;;;1.40;;
72117;SDS011;59992;47.490;8.736;2024-02-16T10:28:54;4.70;;;1.60;;
72117;SDS011;59992;47.490;8.736;2024-02-16T10:31:45;4.70;;;1.50;;
72117;SDS011;59992;47.490;8.736;2024-02-16T10:34:34;3.30;;;1.60;;
72117;SDS011;59992;47.490;8.736;2024-02-16T10:37:26;4.10;;;1.60;;
72117;SDS011;59992;47.490;8.736;2024-02-16T10:40:15;3.40;;;1.40;;
72117;SDS011;59992;47.490;8.736;2024-02-16T10:43:05;3.40;;;1.30;;
72117;SDS011;59992;47.490;8.736;2024-02-16T10:45:54;2.40;;;1.20;;
72117;SDS011;59992;47.490;8.736;2024-02-16T10:48:45;3.80;;;1.40;;
72117;SDS011;59992;47.490;8.736;2024-02-16T10:51:34;3.90;;;1.50;;
72117;SDS011;59992;47.490;8.736;2024-02-16T10:54:26;2.80;;;1.30;;
72117;SDS011;59992;47.490;8.736;2024-02-16T10:57:18;3.20;;;1.50;;
72117;SDS011;59992;47.490;8.736;2024-02-16T11:00:10;4.80;;;1.30;;
72117;SDS011;59992;47.490;8.736;2024-02-16T11:03:04;4.00;;;1.70;;
72117;SDS011;59992;47.490;8.736;2024-02-16T11:05:53;3.50;;;1.70;;
72117;SDS011;59992;47.490;8.736;2024-02-16T11:08:43;4.10;;;2.00;;
72117;SDS011;59992;47.490;8.736;2024-02-16T11:11:36;5.90;;;1.80;;
72117;SDS011;59992;47.490;8.736;2024-02-16T11:14:33;4.70;;;1.90;;
72117;SDS011;59992;47.490;8.736;2024-02-16T11:17:23;3.20;;;1.70;;
72117;SDS011;59992;47.490;8.736;2024-02-16T11:20:13;4.60;;;2.10;;
72117;SDS011;59992;47.490;8.736;2024-02-16T11:23:11;4.00;;;1.80;;
72117;SDS011;59992;47.490;8.736;2024-02-16T11:26:04;4.40;;;1.90;;
72117;SDS011;59992;47.490;8.736;2024-02-16T11:28:58;4.90;;;1.90;;
72117;SDS011;59992;47.490;8.736;2024-02-16T11:31:46;4.50;;;1.90;;
72117;SDS011;59992;47.490;8.736;2024-02-16T11:34:35;4.60;;;2.10;;
72117;SDS011;59992;47.490;8.736;2024-02-16T11:37:25;3.80;;;1.90;;
72117;SDS011;59992;47.490;8.736;2024-02-16T11:40:14;3.00;;;1.70;;
72117;SDS011;59992;47.490;8.736;2024-02-16T11:43:02;4.20;;;1.60;;
72117;SDS011;59992;47.490;8.736;2024-02-16T11:45:51;4.90;;;2.30;;
72117;SDS011;59992;47.490;8.736;2024-02-16T11:48:39;5.00;;;2.10;;
72117;SDS011;59992;47.490;8.736;2024-02-16T11:51:28;6.40;;;2.10;;
72117;SDS011;59992;47.490;8.736;2024-02-16T11:54:16;5.40;;;1.90;;
72117;SDS011;59992;47.490;8.736;2024-02-16T11:57:04;6.60;;;2.20;;
72117;SDS011;59992;47.490;8.736;2024-02-16T11:59:52;4.10;;;2.00;;
72117;SDS011;59992;47.490;8.736;2024-02-16T12:02:42;6.00;;;1.80;;
72117;SDS011;59992;47.490;8.736;2024-02-16T12:05:31;4.80;;;1.90;;
72117;SDS011;59992;47.490;8.736;2024-02-16T12:08:19;4.10;;;1.60;;
72117;SDS011;59992;47.490;8.736;2024-02-16T12:11:07;3.40;;;1.70;;
72117;SDS011;59992;47.490;8.736;2024-02-16T12:13:56;4.20;;;1.90;;
72117;SDS011;59992;47.490;8.736;2024-02-16T12:16:47;5.60;;;1.90;;
72117;SDS011;59992;47.490;8.736;2024-02-16T12:19:35;5.80;;;1.70;;
72117;SDS011;59992;47.490;8.736;2024-02-16T12:22:24;4.30;;;1.30;;
72117;SDS011;59992;47.490;8.736;2024-02-16T12:25:13;4.10;;;1.50;;
72117;SDS011;59992;47.490;8.736;2024-02-16T12:28:01;3.70;;;1.60;;
72117;SDS011;59992;47.490;8.736;2024-02-16T12:30:50;4.80;;;1.80;;
72117;SDS011;59992;47.490;8.736;2024-02-16T12:33:38;4.80;;;1.80;;
72117;SDS011;59992;47.490;8.736;2024-02-16T12:36:26;3.60;;;1.70;;
72117;SDS011;59992;47.490;8.736;2024-02-16T12:39:14;4.00;;;1.60;;
72117;SDS011;59992;47.490;8.736;2024-02-16T12:42:03;3.10;;;1.20;;
72117;SDS011;59992;47.490;8.736;2024-02-16T12:44:51;6.20;;;1.50;;
72117;SDS011;59992;47.490;8.736;2024-02-16T12:47:40;5.60;;;1.30;;
72117;SDS011;59992;47.490;8.736;2024-02-16T12:50:28;4.70;;;1.70;;
72117;SDS011;59992;47.490;8.736;2024-02-16T12:53:16;6.00;;;1.60;;
72117;SDS011;59992;47.490;8.736;2024-02-16T12:56:05;3.60;;;1.60;;
72117;SDS011;59992;47.490;8.736;2024-02-16T12:58:53;4.80;;;1.50;;
72117;SDS011;59992;47.490;8.736;2024-02-16T13:01:41;4.30;;;1.20;;
72117;SDS011;59992;47.490;8.736;2024-02-16T13:04:30;3.30;;;1.20;;
72117;SDS011;59992;47.490;8.736;2024-02-16T13:07:19;3.30;;;1.40;;
72117;SDS011;59992;47.490;8.736;2024-02-16T13:10:08;5.90;;;1.70;;
72117;SDS011;59992;47.490;8.736;2024-02-16T13:12:56;3.00;;;1.50;;
72117;SDS011;59992;47.490;8.736;2024-02-16T13:15:45;8.40;;;2.50;;
72117;SDS011;59992;47.490;8.736;2024-02-16T13:18:47;5.70;;;1.80;;
72117;SDS011;59992;47.490;8.736;2024-02-16T13:21:36;5.50;;;1.80;;
72117;SDS011;59992;47.490;8.736;2024-02-16T13:24:24;5.00;;;1.40;;
72117;SDS011;59992;47.490;8.736;2024-02-16T13:27:13;4.20;;;1.90;;
72117;SDS011;59992;47.490;8.736;2024-02-16T13:30:01;3.70;;;1.50;;
72117;SDS011;59992;47.490;8.736;2024-02-16T13:32:54;7.90;;;1.50;;
72117;SDS011;59992;47.490;8.736;2024-02-16T13:35:44;3.50;;;1.60;;
72117;SDS011;59992;47.490;8.736;2024-02-16T13:38:33;6.20;;;2.40;;
72117;SDS011;59992;47.490;8.736;2024-02-16T13:41:22;5.00;;;1.70;;
72117;SDS011;59992;47.490;8.736;2024-02-16T13:44:10;4.50;;;1.40;;
72117;SDS011;59992;47.490;8.736;2024-02-16T13:46:58;3.60;;;1.50;;
72117;SDS011;59992;47.490;8.736;2024-02-16T13:49:46;4.60;;;1.50;;
72117;SDS011;59992;47.490;8.736;2024-02-16T13:52:35;3.10;;;1.30;;
72117;SDS011;59992;47.490;8.736;2024-02-16T13:55:24;2.60;;;1.50;;
72117;SDS011;59992;47.490;8.736;2024-02-16T13:58:13;5.70;;;1.30;;
72117;SDS011;59992;47.490;8.736;2024-02-16T14:01:02;4.00;;;1.60;;
72117;SDS011;59992;47.490;8.736;2024-02-16T14:03:51;4.20;;;1.50;;
72117;SDS011;59992;47.490;8.736;2024-02-16T14:06:40;3.30;;;1.50;;
72117;SDS011;59992;47.490;8.736;2024-02-16T14:09:29;2.40;;;1.20;;
72117;SDS011;59992;47.490;8.736;2024-02-16T14:12:18;3.80;;;1.50;;
72117;SDS011;59992;47.490;8.736;2024-02-16T14:15:06;4.40;;;1.50;;
72117;SDS011;59992;47.490;8.736;2024-02-16T14:18:02;3.10;;;1.50;;
72117;SDS011;59992;47.490;8.736;2024-02-16T14:21:00;3.70;;;1.80;;
72117;SDS011;59992;47.490;8.736;2024-02-16T14:27:38;6.80;;;1.70;;
72117;SDS011;59992;47.490;8.736;2024-02-16T14:30:28;5.10;;;1.40;;
72117;SDS011;59992;47.490;8.736;2024-02-16T14:33:28;3.40;;;1.50;;
72117;SDS011;59992;47.490;8.736;2024-02-16T14:36:16;3.90;;;2.20;;
72117;SDS011;59992;47.490;8.736;2024-02-16T14:39:04;4.20;;;1.50;;
72117;SDS011;59992;47.490;8.736;2024-02-16T14:41:55;3.80;;;1.20;;
72117;SDS011;59992;47.490;8.736;2024-02-16T14:44:43;3.40;;;1.30;;
72117;SDS011;59992;47.490;8.736;2024-02-16T14:47:31;4.40;;;1.50;;
72117;SDS011;59992;47.490;8.736;2024-02-16T14:50:20;2.20;;;0.90;;
72117;SDS011;59992;47.490;8.736;2024-02-16T14:53:09;3.50;;;1.50;;
72117;SDS011;59992;47.490;8.736;2024-02-16T14:55:57;4.90;;;1.20;;
72117;SDS011;59992;47.490;8.736;2024-02-16T14:58:46;4.70;;;1.60;;
72117;SDS011;59992;47.490;8.736;2024-02-16T15:01:35;4.50;;;1.00;;
72117;SDS011;59992;47.490;8.736;2024-02-16T15:04:23;3.90;;;1.40;;
72117;SDS011;59992;47.490;8.736;2024-02-16T15:07:12;3.40;;;1.30;;
72117;SDS011;59992;47.490;8.736;2024-02-16T15:10:01;6.20;;;1.00;;
72117;SDS011;59992;47.490;8.736;2024-02-16T15:12:50;3.90;;;1.00;;
72117;SDS011;59992;47.490;8.736;2024-02-16T15:15:38;5.30;;;1.00;;
72117;SDS011;59992;47.490;8.736;2024-02-16T15:18:26;2.90;;;0.90;;
72117;SDS011;59992;47.490;8.736;2024-02-16T15:21:15;3.50;;;0.90;;
72117;SDS011;59992;47.490;8.736;2024-02-16T15:24:04;2.80;;;1.00;;
72117;SDS011;59992;47.490;8.736;2024-02-16T15:26:53;5.50;;;1.20;;
72117;SDS011;59992;47.490;8.736;2024-02-16T15:29:41;4.70;;;1.10;;
72117;SDS011;59992;47.490;8.736;2024-02-16T15:32:31;4.00;;;1.00;;
72117;SDS011;59992;47.490;8.736;2024-02-16T15:35:20;4.20;;;1.40;;
72117;SDS011;59992;47.490;8.736;2024-02-16T15:38:09;3.40;;;1.50;;
72117;SDS011;59992;47.490;8.736;2024-02-16T15:40:58;2.20;;;0.80;;
72117;SDS011;59992;47.490;8.736;2024-02-16T15:43:46;3.00;;;1.30;;
72117;SDS011;59992;47.490;8.736;2024-02-16T15:46:34;4.10;;;1.30;;
72117;SDS011;59992;47.490;8.736;2024-02-16T15:49:22;4.40;;;1.10;;
72117;SDS011;59992;47.490;8.736;2024-02-16T15:52:10;2.50;;;0.90;;
72117;SDS011;59992;47.490;8.736;2024-02-16T15:54:59;3.70;;;1.00;;
72117;SDS011;59992;47.490;8.736;2024-02-16T15:57:47;4.10;;;1.00;;
72117;SDS011;59992;47.490;8.736;2024-02-16T16:00:38;1.90;;;1.20;;
72117;SDS011;59992;47.490;8.736;2024-02-16T16:03:26;3.70;;;1.30;;
72117;SDS011;59992;47.490;8.736;2024-02-16T16:06:15;3.50;;;1.30;;
72117;SDS011;59992;47.490;8.736;2024-02-16T16:09:03;4.00;;;1.10;;
72117;SDS011;59992;47.490;8.736;2024-02-16T16:11:53;3.90;;;1.10;;
72117;SDS011;59992;47.490;8.736;2024-02-16T16:14:42;3.40;;;1.30;;
72117;SDS011;59992;47.490;8.736;2024-02-16T16:17:31;1.90;;;1.20;;
72117;SDS011;59992;47.490;8.736;2024-02-16T16:20:20;4.90;;;1.00;;
72117;SDS011;59992;47.490;8.736;2024-02-16T16:23:08;4.60;;;1.00;;
72117;SDS011;59992;47.490;8.736;2024-02-16T16:25:56;5.10;;;1.20;;
72117;SDS011;59992;47.490;8.736;2024-02-16T16:28:45;3.80;;;1.10;;
72117;SDS011;59992;47.490;8.736;2024-02-16T16:31:33;3.60;;;1.20;;
72117;SDS011;59992;47.490;8.736;2024-02-16T16:34:21;5.10;;;1.30;;
72117;SDS011;59992;47.490;8.736;2024-02-16T16:37:10;6.00;;;1.30;;
72117;SDS011;59992;47.490;8.736;2024-02-16T16:39:59;4.30;;;1.20;;
72117;SDS011;59992;47.490;8.736;2024-02-16T16:42:47;3.30;;;1.20;;
72117;SDS011;59992;47.490;8.736;2024-02-16T16:45:35;6.00;;;1.30;;
72117;SDS011;59992;47.490;8.736;2024-02-16T16:48:24;3.50;;;1.20;;
72117;SDS011;59992;47.490;8.736;2024-02-16T16:51:13;3.50;;;1.50;;
72117;SDS011;59992;47.490;8.736;2024-02-16T16:54:02;5.80;;;1.20;;
72117;SDS011;59992;47.490;8.736;2024-02-16T16:56:50;2.60;;;1.20;;
72117;SDS011;59992;47.490;8.736;2024-02-16T16:59:38;6.10;;;1.30;;
72117;SDS011;59992;47.490;8.736;2024-02-16T17:02:26;3.90;;;1.10;;